createdAt,value
2022-10-19T00:01:03.872Z,8.40
2022-10-19T00:03:33.800Z,8.39
2022-10-19T00:06:03.485Z,8.42
2022-10-19T00:08:33.077Z,8.43
2022-10-19T00:11:03.980Z,8.42
2022-10-19T00:13:33.975Z,8.37
2022-10-19T00:16:11.603Z,8.30
2022-10-19T00:18:43.302Z,8.25
2022-10-19T00:21:14.538Z,8.19
2022-10-19T00:23:44.516Z,8.12
2022-10-19T00:26:14.118Z,8.07
2022-10-19T00:28:43.694Z,8.07
2022-10-19T00:31:18.402Z,8.03
2022-10-19T00:33:49.268Z,7.99
2022-10-19T00:36:20.301Z,7.99
2022-10-19T00:38:50.352Z,8.01
2022-10-19T00:41:21.193Z,8.00
2022-10-19T00:43:58.802Z,7.98
2022-10-19T00:46:32.743Z,7.97
2022-10-19T00:49:07.103Z,7.95
2022-10-19T00:51:42.373Z,8.01
2022-10-19T00:54:12.564Z,8.04
2022-10-19T00:56:43.773Z,8.10
2022-10-19T00:59:14.012Z,8.15
2022-10-19T01:01:47.381Z,8.21
2022-10-19T01:04:17.208Z,8.25
2022-10-19T01:06:46.813Z,8.26
2022-10-19T01:09:16.837Z,8.27
2022-10-19T01:11:55.990Z,8.29
2022-10-19T01:14:34.075Z,8.30
2022-10-19T01:17:13.116Z,8.35
2022-10-19T01:20:09.880Z,8.39
2022-10-19T01:22:53.308Z,8.41
2022-10-19T01:25:25.858Z,8.41
2022-10-19T01:28:21.061Z,8.38
2022-10-19T01:30:56.154Z,8.33
2022-10-19T01:33:35.041Z,8.32
2022-10-19T01:36:09.371Z,8.34
2022-10-19T01:38:41.250Z,8.35
2022-10-19T01:41:17.906Z,8.36
2022-10-19T01:43:51.725Z,8.35
2022-10-19T01:46:26.519Z,8.35
2022-10-19T01:48:59.541Z,8.36
2022-10-19T01:51:33.075Z,8.36
2022-10-19T01:54:06.260Z,8.35
2022-10-19T01:56:37.243Z,8.32
2022-10-19T01:59:09.711Z,8.26
2022-10-19T02:01:45.191Z,8.23
2022-10-19T02:04:16.332Z,8.22
2022-10-19T02:06:46.158Z,8.20
2022-10-19T02:09:18.293Z,8.18
2022-10-19T02:11:50.480Z,8.17
2022-10-19T02:14:24.788Z,8.15
2022-10-19T02:17:00.696Z,8.16
2022-10-19T02:19:30.731Z,8.17
2022-10-19T02:22:00.509Z,8.18
2022-10-19T02:24:30.176Z,8.17
2022-10-19T02:27:00.594Z,8.15
2022-10-19T02:29:30.352Z,8.14
2022-10-19T02:32:02.806Z,8.11
2022-10-19T02:34:32.621Z,8.10
2022-10-19T02:37:02.371Z,8.09
2022-10-19T02:39:32.171Z,8.08
2022-10-19T02:42:06.887Z,8.07
2022-10-19T02:44:41.280Z,8.07
2022-10-19T02:47:16.323Z,8.09
2022-10-19T02:49:46.710Z,8.09
2022-10-19T02:52:16.548Z,8.09
2022-10-19T02:54:47.249Z,8.03
2022-10-19T02:57:20.854Z,8.01
2022-10-19T02:59:50.506Z,7.96
2022-10-19T03:02:23.615Z,7.93
2022-10-19T03:04:53.157Z,7.90
2022-10-19T03:07:24.051Z,7.87
2022-10-19T03:09:54.279Z,7.84
2022-10-19T03:12:23.853Z,7.83
2022-10-19T03:14:53.467Z,7.78
2022-10-19T03:17:25.581Z,7.72
2022-10-19T03:19:55.111Z,7.63
2022-10-19T03:22:24.652Z,7.56
2022-10-19T03:24:54.238Z,7.47
2022-10-19T03:27:23.776Z,7.40
2022-10-19T03:29:53.319Z,7.31
2022-10-19T03:32:25.498Z,7.24
2022-10-19T03:34:55.061Z,7.16
2022-10-19T03:37:24.707Z,7.11
2022-10-19T03:39:54.981Z,7.06
2022-10-19T03:42:24.520Z,7.07
2022-10-19T03:44:54.078Z,7.08
2022-10-19T03:47:26.233Z,7.09
2022-10-19T03:49:55.781Z,7.06
2022-10-19T03:52:25.288Z,7.05
2022-10-19T03:54:54.873Z,7.04
2022-10-19T03:57:24.428Z,7.02
2022-10-19T03:59:53.989Z,6.97
2022-10-19T04:02:26.608Z,6.92
2022-10-19T04:04:56.604Z,6.88
2022-10-19T04:07:26.184Z,6.83
2022-10-19T04:09:56.325Z,6.80
2022-10-19T04:12:25.837Z,6.77
2022-10-19T04:14:57.795Z,6.77
2022-10-19T04:17:30.588Z,6.76
2022-10-19T04:20:00.229Z,6.73
2022-10-19T04:22:29.734Z,6.70
2022-10-19T04:24:59.272Z,6.65
2022-10-19T04:27:28.780Z,6.58
2022-10-19T04:29:58.348Z,6.59
2022-10-19T04:32:30.516Z,6.65
2022-10-19T04:35:00.077Z,6.71
2022-10-19T04:37:29.606Z,6.82
2022-10-19T04:39:59.149Z,6.93
2022-10-19T04:42:28.696Z,7.01
2022-10-19T04:44:58.238Z,7.10
2022-10-19T04:47:31.840Z,7.19
2022-10-19T04:50:01.635Z,7.26
2022-10-19T04:52:31.264Z,7.34
2022-10-19T04:55:00.816Z,7.42
2022-10-19T04:57:30.431Z,7.48
2022-10-19T05:00:00.023Z,7.52
2022-10-19T05:02:32.118Z,7.54
2022-10-19T05:05:01.654Z,7.54
2022-10-19T05:07:31.416Z,7.56
2022-10-19T05:10:01.156Z,7.56
2022-10-19T05:12:30.696Z,7.55
2022-10-19T05:15:00.243Z,7.55
2022-10-19T05:17:33.929Z,7.54
2022-10-19T05:20:03.661Z,7.56
2022-10-19T05:22:33.167Z,7.56
2022-10-19T05:25:02.707Z,7.56
2022-10-19T05:27:32.552Z,7.55
2022-10-19T05:30:02.381Z,7.55
2022-10-19T05:32:34.528Z,7.55
2022-10-19T05:35:04.106Z,7.57
2022-10-19T05:37:33.846Z,7.57
2022-10-19T05:40:03.575Z,7.57
2022-10-19T05:42:33.126Z,7.60
2022-10-19T05:45:03.189Z,7.62
2022-10-19T05:47:37.315Z,7.65
2022-10-19T05:50:07.869Z,7.68
2022-10-19T05:52:37.928Z,7.68
2022-10-19T05:55:08.700Z,7.69
2022-10-19T05:57:38.233Z,7.71
2022-10-19T06:00:08.795Z,7.72
2022-10-19T06:02:43.945Z,7.74
2022-10-19T06:05:13.507Z,7.73
2022-10-19T06:07:43.003Z,7.71
2022-10-19T06:10:13.002Z,7.71
2022-10-19T06:12:42.504Z,7.68
2022-10-19T06:15:12.966Z,7.67
2022-10-19T06:17:45.090Z,7.65
2022-10-19T06:20:15.065Z,7.63
2022-10-19T06:22:44.614Z,7.61
2022-10-19T06:25:17.989Z,7.61
2022-10-19T06:27:50.174Z,7.63
2022-10-19T06:30:20.025Z,7.68
2022-10-19T06:32:52.289Z,7.84
2022-10-19T06:35:22.043Z,8.20
2022-10-19T06:37:51.611Z,8.69
2022-10-19T06:40:21.176Z,9.21
2022-10-19T06:42:50.731Z,9.77
2022-10-19T06:45:20.524Z,10.23
2022-10-19T06:47:52.662Z,10.74
2022-10-19T06:50:23.148Z,11.29
2022-10-19T06:52:52.674Z,11.87
2022-10-19T06:55:22.338Z,12.42
2022-10-19T06:57:51.872Z,12.88
2022-10-19T07:00:21.485Z,13.37
2022-10-19T07:02:53.602Z,13.84
2022-10-19T07:05:23.162Z,14.28
2022-10-19T07:07:52.822Z,14.69
2022-10-19T07:10:22.414Z,14.98
2022-10-19T07:12:52.021Z,15.23
2022-10-19T07:15:21.557Z,15.47
2022-10-19T07:17:55.676Z,15.74
2022-10-19T07:20:25.215Z,15.96
2022-10-19T07:22:54.786Z,16.23
2022-10-19T07:25:25.002Z,16.53
2022-10-19T07:27:54.540Z,16.80
2022-10-19T07:30:24.187Z,16.95
2022-10-19T07:32:56.364Z,17.15
2022-10-19T07:35:25.885Z,17.42
2022-10-19T07:37:55.446Z,17.78
2022-10-19T07:40:24.962Z,18.02
2022-10-19T07:42:54.490Z,18.22
2022-10-19T07:45:24.224Z,18.54
2022-10-19T07:47:56.394Z,19.06
2022-10-19T07:50:27.701Z,19.45
2022-10-19T07:52:58.075Z,19.74
2022-10-19T07:55:27.706Z,20.07
2022-10-19T07:58:01.501Z,20.51
2022-10-19T08:00:30.865Z,20.55
2022-10-19T08:05:52.547Z,19.78
2022-10-19T08:08:22.140Z,19.79
2022-10-19T08:10:51.695Z,19.99
2022-10-19T08:13:21.259Z,20.35
2022-10-19T08:15:50.949Z,20.89
2022-10-19T08:18:23.645Z,21.25
2022-10-19T08:20:53.254Z,21.37
2022-10-19T08:23:22.999Z,21.76
2022-10-19T08:25:52.773Z,22.34
2022-10-19T08:28:22.363Z,22.82
2022-10-19T08:30:52.006Z,23.02
2022-10-19T08:33:24.140Z,23.06
2022-10-19T08:35:53.964Z,23.18
2022-10-19T08:38:23.620Z,23.41
2022-10-19T08:40:53.172Z,23.61
2022-10-19T08:43:27.035Z,24.06
2022-10-19T08:46:00.124Z,24.15
2022-10-19T08:48:36.762Z,23.81
2022-10-19T08:51:09.392Z,23.58
2022-10-19T08:53:48.936Z,23.85
2022-10-19T08:56:49.854Z,24.46
2022-10-19T08:59:19.474Z,24.83
2022-10-19T09:01:53.325Z,24.91
2022-10-19T09:04:28.088Z,25.01
2022-10-19T09:07:12.872Z,25.05
2022-10-19T09:12:43.472Z,25.09
2022-10-19T09:15:16.094Z,25.27
2022-10-19T09:17:45.700Z,25.36
2022-10-19T09:20:22.956Z,25.18
2022-10-19T09:23:01.920Z,25.00
2022-10-19T09:25:33.405Z,24.65
2022-10-19T09:28:09.458Z,24.40
2022-10-19T09:30:40.175Z,24.29
2022-10-19T09:33:19.302Z,24.33
2022-10-19T09:35:51.528Z,24.08
2022-10-19T09:38:22.382Z,23.80
2022-10-19T09:40:51.917Z,23.41
2022-10-19T09:43:22.583Z,23.06
2022-10-19T09:45:54.854Z,22.89
2022-10-19T09:48:30.811Z,23.03
2022-10-19T09:51:04.728Z,23.22
2022-10-19T09:53:34.354Z,23.27
2022-10-19T09:56:08.522Z,23.10
2022-10-19T09:58:38.500Z,22.61
2022-10-19T10:01:08.348Z,21.76
2022-10-19T10:03:40.807Z,20.96
2022-10-19T10:06:16.171Z,20.28
2022-10-19T10:08:49.305Z,19.82
2022-10-19T10:11:26.413Z,19.44
2022-10-19T10:13:57.710Z,19.19
2022-10-19T10:16:33.754Z,18.87
2022-10-19T10:19:06.932Z,18.40
2022-10-19T10:21:50.313Z,17.94
2022-10-19T10:24:21.325Z,17.46
2022-10-19T10:26:52.624Z,17.04
2022-10-19T10:29:24.367Z,16.77
2022-10-19T10:31:55.674Z,16.57
2022-10-19T10:34:51.932Z,16.46
2022-10-19T10:37:27.544Z,16.35
2022-10-19T10:40:02.021Z,16.20
2022-10-19T10:42:38.143Z,16.08
2022-10-19T10:45:19.046Z,15.97
2022-10-19T10:47:49.152Z,15.82
2022-10-19T10:50:24.050Z,15.72
2022-10-19T10:53:04.194Z,15.62
2022-10-19T10:55:34.871Z,15.60
2022-10-19T10:58:13.178Z,15.58
2022-10-19T11:00:43.790Z,15.54
2022-10-19T11:03:17.583Z,15.51
2022-10-19T11:05:48.829Z,15.46
2022-10-19T11:08:25.297Z,15.47
2022-10-19T11:10:59.323Z,15.52
2022-10-19T11:13:29.381Z,15.55
2022-10-19T11:16:01.890Z,15.56
2022-10-19T11:18:33.480Z,15.59
2022-10-19T11:21:08.525Z,15.61
2022-10-19T11:23:54.325Z,15.65
2022-10-19T11:26:36.176Z,15.72
2022-10-19T11:29:17.049Z,15.76
2022-10-19T11:31:51.088Z,15.77
2022-10-19T11:34:27.245Z,15.81
2022-10-19T11:37:00.451Z,15.87
2022-10-19T11:39:42.822Z,15.94
2022-10-19T11:42:20.905Z,16.00
2022-10-19T11:45:01.136Z,16.03
2022-10-19T11:47:43.285Z,16.06
2022-10-19T11:50:32.475Z,16.09
2022-10-19T11:53:10.292Z,16.08
2022-10-19T11:55:47.478Z,16.06
2022-10-19T11:58:34.894Z,16.01
2022-10-19T12:01:15.444Z,15.98
2022-10-19T12:04:06.828Z,15.97
2022-10-19T12:06:42.764Z,16.01
2022-10-19T12:09:21.538Z,16.04
2022-10-19T12:12:05.750Z,16.08
2022-10-19T12:14:38.724Z,16.11
2022-10-19T12:17:10.541Z,16.13
2022-10-19T12:19:43.062Z,16.12
2022-10-19T12:22:18.040Z,16.12
2022-10-19T12:24:48.450Z,16.15
2022-10-19T12:27:24.047Z,16.18
2022-10-19T12:29:53.672Z,16.19
2022-10-19T12:32:24.603Z,16.20
2022-10-19T12:34:59.244Z,16.21
2022-10-19T12:37:34.465Z,16.21
2022-10-19T12:40:08.149Z,16.20
2022-10-19T12:42:51.396Z,16.21
2022-10-19T12:45:30.405Z,16.18
2022-10-19T12:48:19.008Z,16.18
2022-10-19T12:51:03.925Z,16.16
2022-10-19T12:53:36.238Z,16.16
2022-10-19T12:56:07.623Z,16.18
2022-10-19T12:58:48.123Z,16.20
2022-10-19T13:01:21.227Z,16.21
2022-10-19T13:03:52.556Z,16.26
2022-10-19T13:06:33.566Z,16.33
2022-10-19T13:09:06.185Z,16.36
2022-10-19T13:11:36.144Z,16.38
2022-10-19T13:14:10.159Z,16.39
2022-10-19T13:17:00.075Z,16.37
2022-10-19T13:19:30.236Z,16.33
2022-10-19T13:22:26.705Z,16.31
2022-10-19T13:25:29.577Z,16.29
2022-10-19T13:28:03.023Z,16.24
2022-10-19T13:31:11.558Z,16.21
2022-10-19T13:33:52.991Z,16.14
2022-10-19T13:36:23.581Z,16.11
2022-10-19T13:39:13.040Z,16.05
2022-10-19T13:42:03.288Z,16.00
2022-10-19T13:44:37.522Z,15.98
2022-10-19T13:47:22.884Z,15.96
2022-10-19T13:50:19.646Z,15.94
2022-10-19T13:53:19.546Z,15.94
2022-10-19T13:56:02.248Z,15.90
2022-10-19T13:58:48.772Z,15.88
2022-10-19T14:01:28.704Z,15.84
2022-10-19T14:04:10.977Z,15.81
2022-10-19T14:06:46.107Z,15.79
2022-10-19T14:09:28.342Z,15.76
2022-10-19T14:12:06.790Z,15.72
2022-10-19T14:17:21.247Z,15.66
2022-10-19T14:19:55.400Z,15.62
2022-10-19T14:22:30.105Z,15.60
2022-10-19T14:25:04.129Z,15.58
2022-10-19T14:27:33.868Z,15.55
2022-10-19T14:30:03.781Z,15.51
2022-10-19T14:32:36.140Z,15.49
2022-10-19T14:35:21.937Z,15.49
2022-10-19T14:37:51.939Z,15.46
2022-10-19T14:40:30.348Z,15.44
2022-10-19T14:43:01.076Z,15.40
2022-10-19T14:45:32.562Z,15.38
2022-10-19T14:48:03.739Z,15.34
2022-10-19T14:50:44.548Z,15.31
2022-10-19T14:53:28.312Z,15.29
2022-10-19T14:56:01.041Z,15.27
2022-10-19T14:58:37.456Z,15.27
2022-10-19T15:01:07.263Z,15.28
2022-10-19T15:03:40.212Z,15.31
2022-10-19T15:06:21.097Z,15.35
2022-10-19T15:11:28.620Z,15.44
2022-10-19T15:14:00.655Z,15.46
2022-10-19T15:16:33.242Z,15.48
2022-10-19T15:19:06.405Z,15.48
2022-10-19T15:21:38.551Z,15.50
2022-10-19T15:24:18.948Z,15.49
2022-10-19T15:27:06.602Z,15.48
2022-10-19T15:29:38.583Z,15.48
2022-10-19T15:32:18.733Z,15.46
2022-10-19T15:34:48.714Z,15.43
2022-10-19T15:40:16.931Z,15.38
2022-10-19T15:42:48.841Z,15.37
2022-10-19T15:45:32.995Z,15.36
2022-10-19T15:48:18.776Z,15.33
2022-10-19T15:50:50.222Z,15.28
2022-10-19T15:53:23.744Z,15.20
2022-10-19T15:55:53.391Z,15.11
2022-10-19T15:58:23.064Z,14.97
2022-10-19T16:00:52.649Z,14.85
2022-10-19T16:03:23.157Z,14.75
2022-10-19T16:05:52.860Z,14.63
2022-10-19T16:08:25.090Z,14.51
2022-10-19T16:10:54.708Z,14.41
2022-10-19T16:13:24.270Z,14.26
2022-10-19T16:16:01.430Z,14.15
2022-10-19T16:18:40.239Z,14.00
2022-10-19T16:21:10.457Z,13.88
2022-10-19T16:23:42.667Z,13.76
2022-10-19T16:26:12.457Z,13.65
2022-10-19T16:28:41.998Z,13.54
2022-10-19T16:31:11.633Z,13.40
2022-10-19T16:33:41.183Z,13.29
2022-10-19T16:36:11.839Z,13.19
2022-10-19T16:38:44.091Z,13.11
2022-10-19T16:41:13.956Z,13.03
2022-10-19T16:43:43.659Z,12.93
2022-10-19T16:46:13.420Z,12.84
2022-10-19T16:48:42.932Z,12.77
2022-10-19T16:51:23.938Z,12.68
2022-10-19T16:53:57.617Z,12.60
2022-10-19T16:56:28.708Z,12.53
2022-10-19T16:58:59.903Z,12.47
2022-10-19T17:01:30.031Z,12.43
2022-10-19T17:03:59.664Z,12.40
2022-10-19T17:06:30.546Z,12.31
2022-10-19T17:09:30.247Z,12.25
2022-10-19T17:11:52.416Z,12.23
2022-10-19T17:14:21.941Z,12.21
2022-10-19T17:16:51.533Z,12.16
2022-10-19T17:19:21.049Z,12.15
2022-10-19T17:21:50.579Z,12.11
2022-10-19T17:24:23.190Z,12.11
2022-10-19T17:26:53.772Z,12.10
2022-10-19T17:29:24.230Z,12.07
2022-10-19T17:31:54.006Z,12.07
2022-10-19T17:34:23.900Z,12.06
2022-10-19T17:36:53.419Z,12.04
2022-10-19T17:39:29.224Z,12.02
2022-10-19T17:42:02.031Z,12.00
2022-10-19T17:44:32.703Z,11.97
2022-10-19T17:47:02.556Z,11.96
2022-10-19T17:49:32.143Z,11.93
2022-10-19T17:52:01.705Z,11.92
2022-10-19T17:54:43.459Z,11.90
2022-10-19T17:57:23.334Z,11.87
2022-10-19T17:59:53.291Z,11.88
2022-10-19T18:02:23.046Z,11.88
2022-10-19T18:04:52.560Z,11.86
2022-10-19T18:07:25.643Z,11.85
2022-10-19T18:09:57.744Z,11.83
2022-10-19T18:12:27.281Z,11.81
2022-10-19T18:14:56.852Z,11.79
2022-10-19T18:17:27.770Z,11.75
2022-10-19T18:19:57.549Z,11.73
2022-10-19T18:22:27.102Z,11.70
2022-10-19T18:24:59.228Z,11.67
2022-10-19T18:27:28.799Z,11.64
2022-10-19T18:29:58.360Z,11.61
2022-10-19T18:32:28.025Z,11.60
2022-10-19T18:34:57.511Z,11.58
2022-10-19T18:37:28.705Z,11.56
2022-10-19T18:40:00.828Z,11.51
2022-10-19T18:42:30.610Z,11.45
2022-10-19T18:45:00.134Z,11.40
2022-10-19T18:47:29.655Z,11.38
2022-10-19T18:49:59.159Z,11.34
2022-10-19T18:52:28.782Z,11.28
2022-10-19T18:55:00.994Z,11.25
2022-10-19T18:57:31.826Z,11.19
2022-10-19T19:00:01.642Z,11.13
2022-10-19T19:02:42.258Z,11.05
2022-10-19T19:05:15.971Z,10.99
2022-10-19T19:07:45.489Z,10.94
2022-10-19T19:10:18.175Z,10.89
2022-10-19T19:12:47.711Z,10.84
2022-10-19T19:15:17.287Z,10.80
2022-10-19T19:17:47.565Z,10.76
2022-10-19T19:20:17.100Z,10.74
2022-10-19T19:22:46.687Z,10.70
2022-10-19T19:25:18.825Z,10.62
2022-10-19T19:27:48.398Z,10.54
2022-10-19T19:30:18.017Z,10.52
2022-10-19T19:32:47.548Z,10.50
2022-10-19T19:35:17.248Z,10.47
2022-10-19T19:37:46.875Z,10.44
2022-10-19T19:40:19.417Z,10.43
2022-10-19T19:42:49.463Z,10.40
2022-10-19T19:45:19.055Z,10.36
2022-10-19T19:47:48.645Z,10.30
2022-10-19T19:50:18.266Z,10.26
2022-10-19T19:52:48.592Z,10.20
2022-10-19T19:55:20.761Z,10.15
2022-10-19T19:57:53.901Z,10.12
2022-10-19T20:00:23.737Z,10.12
2022-10-19T20:02:56.882Z,10.10
2022-10-19T20:05:26.924Z,10.07
2022-10-19T20:07:56.516Z,10.04
2022-10-19T20:10:28.874Z,10.01
2022-10-19T20:12:58.459Z,10.02
2022-10-19T20:15:27.984Z,10.02
2022-10-19T20:17:57.545Z,10.04
2022-10-19T20:20:27.121Z,10.07
2022-10-19T20:22:56.723Z,10.04
2022-10-19T20:25:28.878Z,10.02
2022-10-19T20:27:58.477Z,9.99
2022-10-19T20:30:27.983Z,9.98
2022-10-19T20:32:58.745Z,9.97
2022-10-19T20:35:28.584Z,9.99
2022-10-19T20:37:58.623Z,10.01
2022-10-19T20:40:30.738Z,10.04
2022-10-19T20:43:00.301Z,10.06
2022-10-19T20:45:29.862Z,10.05
2022-10-19T20:47:59.427Z,10.02
2022-10-19T20:50:28.982Z,10.03
2022-10-19T20:52:58.492Z,10.06
2022-10-19T20:55:30.702Z,10.08
2022-10-19T20:58:00.221Z,10.10
2022-10-19T21:00:29.771Z,10.11
2022-10-19T21:02:59.489Z,10.12
2022-10-19T21:05:29.436Z,10.14
2022-10-19T21:07:59.018Z,10.13
2022-10-19T21:10:31.716Z,10.10
2022-10-19T21:13:01.289Z,10.07
2022-10-19T21:15:30.788Z,10.08
2022-10-19T21:18:00.351Z,10.07
2022-10-19T21:20:30.507Z,10.05
2022-10-19T21:23:01.079Z,10.01
2022-10-19T21:25:33.165Z,10.01
2022-10-19T21:28:02.732Z,10.02
2022-10-19T21:30:32.225Z,10.01
2022-10-19T21:33:01.734Z,10.01
2022-10-19T21:35:31.290Z,10.02
2022-10-19T21:38:01.053Z,10.04
2022-10-19T21:40:33.139Z,10.04
2022-10-19T21:43:02.665Z,10.04
2022-10-19T21:45:32.195Z,10.05
2022-10-19T21:48:01.755Z,9.99
2022-10-19T21:50:31.285Z,9.96
2022-10-19T21:53:00.811Z,9.95
2022-10-19T21:55:35.894Z,9.97
2022-10-19T21:58:05.971Z,9.98
2022-10-19T22:00:36.481Z,9.99
2022-10-19T22:03:06.473Z,10.04
2022-10-19T22:05:36.093Z,10.07
2022-10-19T22:08:05.692Z,10.09
2022-10-19T22:10:40.375Z,10.10
2022-10-19T22:13:09.910Z,10.09
2022-10-19T22:15:39.970Z,10.09
2022-10-19T22:18:09.779Z,10.11
2022-10-19T22:20:39.697Z,10.10
2022-10-19T22:23:10.283Z,10.11
2022-10-19T22:25:42.404Z,10.09
2022-10-19T22:28:11.931Z,10.07
2022-10-19T22:30:45.021Z,10.08
2022-10-19T22:33:14.680Z,10.08
2022-10-19T22:35:44.253Z,10.08
2022-10-19T22:38:13.846Z,10.08
2022-10-19T22:40:45.969Z,10.12
2022-10-19T22:43:15.539Z,10.15
2022-10-19T22:45:45.126Z,10.16
2022-10-19T22:48:14.692Z,10.16
2022-10-19T22:50:44.245Z,10.15
2022-10-19T22:53:13.945Z,10.16
2022-10-19T22:55:46.104Z,10.19
2022-10-19T22:58:15.698Z,10.19
2022-10-19T23:00:45.293Z,10.20
2022-10-19T23:03:14.932Z,10.20
2022-10-19T23:05:44.498Z,10.22
2022-10-19T23:08:14.109Z,10.24
2022-10-19T23:10:46.280Z,10.24
2022-10-19T23:13:15.932Z,10.23
2022-10-19T23:15:46.300Z,10.23
2022-10-19T23:18:16.117Z,10.24
2022-10-19T23:20:46.041Z,10.30
2022-10-19T23:23:15.665Z,10.30
2022-10-19T23:25:48.287Z,10.29
2022-10-19T23:28:18.255Z,10.31
2022-10-19T23:30:47.984Z,10.32
2022-10-19T23:33:17.569Z,10.34
2022-10-19T23:35:47.152Z,10.36
2022-10-19T23:38:16.710Z,10.35
2022-10-19T23:40:48.880Z,10.35
2022-10-19T23:43:18.515Z,10.37
2022-10-19T23:45:48.232Z,10.36
2022-10-19T23:48:17.773Z,10.37
2022-10-19T23:50:47.433Z,10.35
2022-10-19T23:53:16.998Z,10.37
2022-10-19T23:55:49.108Z,10.38
2022-10-19T23:58:18.678Z,10.39
